• Join FlightAware (Why Join?)
  • Login
  • US Flag 
11:14PM EDT


 

Airport Tracker/Info


-or-


 

Live Flight TrackerFlight Track Log ✈ AAL2320 ✈ 16-Jul-2013 ✈ KDFW - KORD

Flight Track Log - Related Links

Times and Time Zones

All times are in EDT time to prevent confusion due to time zone crossing. See the AAL2320 flight status page for this flight to view local times or setup timezone preferences in your user account.

Time Position Orientation Groundspeed Altitude Reporting Facility
EDT Latitude Longitude Course Direction KTS MPH feet Rate Location/Type
06:50AM 32.8833 -97.0333 52° Northeast 171 197 1,200  Level Dallas / Fort Worth TRACON
06:51AM 32.8167 -97.0167 168° South 199 229 3,900 2,280 Climbing Dallas / Fort Worth TRACON
06:53AM 32.8052 -96.7550 53° Northeast  Level FlightAware Approximate
06:53AM 32.7667 -96.9667 140° Southeast 247 284 7,000  Level Dallas / Fort Worth TRACON
06:54AM 32.8728 -96.6492 52° Northeast  Level FlightAware Approximate
06:54AM 32.8000 -96.8833 65° Northeast 295 339 9,500  Level Dallas / Fort Worth TRACON
06:54AM 32.8333 -96.8000 65° Northeast 329 379 11,200 2,220 Climbing Dallas / Fort Worth TRACON
06:55AM 32.9422 -96.5450 52° Northeast  Level FlightAware Approximate
06:56AM 32.9250 -96.6314 57° Northeast 356 410 15,300  Level Fort Worth Center
06:57AM 32.9806 -96.5219 59° Northeast 369 425 17,700 2,100 Climbing Fort Worth Center
06:58AM 33.0342 -96.4247 57° Northeast 387 445 19,500 1,920 Climbing Fort Worth Center
06:59AM 33.0914 -96.2975 62° Northeast 392 451 21,600 1,860 Climbing Fort Worth Center
07:00AM 33.1258 -96.1806 71° East 398 458 23,300 1,620 Climbing Fort Worth Center
07:01AM 33.1744 -96.0386 68° East 409 471 24,900 1,500 Climbing Fort Worth Center
07:02AM 33.2294 -95.9133 62° Northeast 415 478 26,400 1,320 Climbing Fort Worth Center
07:03AM 33.2861 -95.7783 63° Northeast 433 498 27,600 1,320 Climbing Fort Worth Center
07:04AM 33.3408 -95.6431 64° Northeast 439 505 29,100 1,440 Climbing Fort Worth Center
07:05AM 33.3950 -95.5100 64° Northeast 439 505 30,500 1,380 Climbing Fort Worth Center
07:06AM 33.4494 -95.3744 64° Northeast 444 511 31,900 1,200 Climbing Fort Worth Center
07:07AM 33.5033 -95.2386 65° Northeast 444 511 33,000 540 Climbing Fort Worth Center
07:08AM 33.5575 -95.1028 64° Northeast 444 511 33,000  Level Fort Worth Center
07:09AM 33.6111 -94.9692 64° Northeast 444 511 33,000  Level Fort Worth Center
07:10AM 33.6647 -94.8356 64° Northeast 444 511 33,000  Level Fort Worth Center
07:12AM 33.7744 -94.5603 64° Northeast 437 503 33,000  Level Memphis Center
07:13AM 33.8292 -94.4206 65° Northeast 442 509 33,000  Level Memphis Center
07:14AM 33.8814 -94.2878 65° Northeast 447 514 33,000  Level Memphis Center
07:15AM 33.9358 -94.1500 65° Northeast 447 514 33,000  Level Memphis Center
07:16AM 33.9875 -94.0197 64° Northeast 436 502 33,000  Level Memphis Center
07:17AM 34.0394 -93.8839 65° Northeast 436 502 33,000  Level Memphis Center
07:18AM 34.0933 -93.7483 64° Northeast 441 507 33,000  Level Memphis Center
07:19AM 34.1428 -93.6122 66° East 441 507 33,000  Level Memphis Center
07:20AM 34.1964 -93.4761 65° Northeast 441 507 33,000  Level Memphis Center
07:21AM 34.2478 -93.3372 66° East 441 507 33,000  Level Memphis Center
07:22AM 34.3011 -93.2008 65° Northeast 446 513 33,000  Level Memphis Center
07:23AM 34.3567 -93.0442 67° East 452 520 33,000  Level Memphis Center
07:24AM 34.4056 -92.9072 67° East 452 520 33,000  Level Memphis Center
07:25AM 34.4583 -92.7728 65° Northeast 446 513 33,000  Level Memphis Center
07:26AM 34.5089 -92.6356 66° East 446 513 33,000  Level Memphis Center
07:27AM 34.5594 -92.4956 66° East 446 513 33,000  Level Memphis Center
07:28AM 34.6094 -92.3608 66° East 446 513 33,000  Level Memphis Center
07:29AM 34.6617 -92.2231 65° Northeast 446 513 33,000  Level Memphis Center
07:30AM 34.7650 -92.1544 29° Northeast 407 468 33,000  Level Memphis Center
07:31AM 34.8908 -92.1167 14° North 418 481 33,000  Level Memphis Center
07:32AM 35.0100 -92.0836 13° North 425 489 33,000  Level Memphis Center
07:33AM 35.1294 -92.0506 13° North 430 495 33,000  Level Memphis Center
07:34AM 35.2508 -92.0147 14° North 436 502 33,000  Level Memphis Center
07:35AM 35.3744 -91.9792 13° North 441 507 33,000  Level Memphis Center
07:36AM 35.4958 -91.9458 13° North 441 507 33,000  Level Memphis Center
07:37AM 35.6131 -91.9097 14° North 441 507 33,000  Level Memphis Center
07:38AM 35.7239 -91.8786 13° North 441 507 33,000  Level Memphis Center
07:39AM 35.8433 -91.8447 13° North 441 507 33,000  Level Memphis Center
07:40AM 35.9689 -91.8086 13° North 429 494 33,000  Level Memphis Center
07:41AM 36.0903 -91.7722 14° North 423 487 33,000  Level Memphis Center
07:42AM 36.2094 -91.7383 13° North 431 496 33,000  Level Memphis Center
07:43AM 36.3286 -91.7042 13° North 431 496 33,000  Level Memphis Center
07:44AM 36.4417 -91.6675 15° North 431 496 33,000  Level Memphis Center
07:45AM 36.5525 -91.6331 14° North 431 496 33,000  Level Memphis Center
07:46AM 36.6483 -91.6033 14° North 436 502 33,000  Level Kansas City Center
07:47AM 36.7647 -91.5700 13° North 432 497 33,000  Level Kansas City Center
07:48AM 36.8844 -91.5322 14° North 435 501 33,000  Level Kansas City Center
07:49AM 37.0033 -91.4953 14° North 438 504 33,000  Level Kansas City Center
07:50AM 37.1217 -91.4592 14° North 438 504 33,000  Level Kansas City Center
07:51AM 37.2417 -91.4233 13° North 441 507 33,000  Level Kansas City Center
07:52AM 37.3594 -91.3869 14° North 439 505 33,000  Level Kansas City Center
07:53AM 37.4808 -91.3500 14° North 444 511 33,000  Level Kansas City Center
07:54AM 37.5997 -91.3131 14° North 443 510 33,000  Level Kansas City Center
07:55AM 37.7206 -91.2758 14° North 445 512 33,000  Level Kansas City Center
07:56AM 37.8644 -91.2319 14° North 445 512 33,000  Level Kansas City Center
07:57AM 37.9847 -91.1953 14° North 444 511 33,000  Level Kansas City Center
07:58AM 38.1050 -91.1572 14° North 446 513 33,000  Level Kansas City Center
07:59AM 38.2142 -91.1233 14° North 448 516 33,000  Level Kansas City Center
08:00AM 38.3353 -91.0850 14° North 447 514 33,000  Level Kansas City Center
08:01AM 38.4564 -91.0478 14° North 446 513 33,000  Level Kansas City Center
08:02AM 38.5769 -91.0092 14° North 445 512 33,000  Level Kansas City Center
08:03AM 38.7197 -90.9603 15° North 442 509 33,000  Level Kansas City Center
08:04AM 38.8333 -90.8978 23° Northeast 442 509 33,000  Level Kansas City Center
08:05AM 38.9469 -90.8361 23° Northeast 441 507 33,000  Level Kansas City Center
08:06AM 39.0603 -90.7756 23° Northeast 438 504 33,000  Level Kansas City Center
08:07AM 39.1739 -90.7142 23° Northeast 440 506 33,000  Level Kansas City Center
08:09AM 39.2858 -90.6503 24° Northeast 439 505 33,000  Level Kansas City Center
08:10AM 39.3983 -90.5897 23° Northeast 437 503 33,000  Level Kansas City Center
08:11AM 39.5097 -90.5269 23° Northeast 437 503 33,000  Level Kansas City Center
08:12AM 39.6217 -90.4653 23° Northeast 436 502 33,000  Level Kansas City Center
08:13AM 39.7339 -90.4033 23° Northeast 437 503 33,000  Level Kansas City Center
08:14AM 39.8642 -90.3308 23° Northeast 437 503 33,000  Level Kansas City Center
08:15AM 39.9747 -90.2664 24° Northeast 435 501 33,000  Level Kansas City Center
08:16AM 40.0858 -90.2044 23° Northeast 434 499 33,000  Level Kansas City Center
08:17AM 40.1958 -90.1425 23° Northeast 431 496 33,000  Level Kansas City Center
08:18AM 40.3069 -90.0800 23° Northeast 433 498 33,000 -300 Level Kansas City Center
08:19AM 40.4169 -90.0169 24° Northeast 431 496 32,400 -660 Descending Kansas City Center
08:20AM 40.5261 -89.9547 23° Northeast 438 504 31,700 -780 Descending Kansas City Center
08:21AM 40.6367 -89.8911 24° Northeast 437 503 30,900 -840 Descending Kansas City Center
08:22AM 40.7594 -89.8208 23° Northeast 444 511 30,000 -900 Descending Kansas City Center
08:23AM 40.9333 -89.8764 346° North 470 541 28,800 -900 Descending Chicago Center
08:24AM 41.0672 -89.8986 353° North 466 536 27,900 -960 Descending Chicago Center
08:25AM 41.1708 -89.8111 32° Northeast 449 517 26,900 -1,500 Descending Chicago Center
08:26AM 41.2286 -89.6289 67° East 440 506 24,800 -2,400 Descending Chicago Center
08:27AM 41.2739 -89.4831 68° East 428 493 22,000 -2,520 Descending Chicago Center
08:28AM 41.3192 -89.3397 67° East 420 483 19,600 -2,400 Descending Chicago Center
08:29AM 41.3653 -89.1881 68° East 407 468 17,100 -2,220 Descending Chicago Center
08:30AM 41.4064 -89.0522 68° East 401 461 15,100 -2,040 Descending Chicago Center
08:31AM 41.4453 -88.9247 68° East 380 437 12,900 -1,920 Descending Chicago Center
08:33AM 41.4836 -88.8014 67° East 367 422 11,200 -960 Descending Chicago Center
08:34AM 41.5197 -88.6856 67° East 345 397 11,000 -120 Descending Chicago Center
08:35AM 41.5672 -88.5669 62° Northeast 308 354 11,000 -540 Level Chicago Center
08:36AM 41.6078 -88.4678 61° Northeast 302 348 10,000 -1,260 Descending Chicago Center
08:37AM 41.6594 -88.3808 51° Northeast 299 344 8,500 -1,320 Descending Chicago Center
08:38AM 41.7214 -88.3147 39° Northeast 304 350 7,300 -780 Descending Chicago Center
08:39AM 41.8014 -88.2992 North 291 335 7,000 -660 Descending Chicago Center
08:40AM 41.8794 -88.2822 North 284 327 6,000 -1,380 Descending Chicago Center
08:41AM 41.9578 -88.2297 26° Northeast 277 319 4,200 -1,800 Descending Chicago Center